createdAt,value
2022-08-17T05:01:47.071Z,53.79
2022-08-17T05:04:34.411Z,52.40
2022-08-17T05:07:04.888Z,51.18
2022-08-17T05:09:33.592Z,51.67
2022-08-17T05:12:03.521Z,53.26
2022-08-17T05:14:33.582Z,54.79
2022-08-17T05:17:07.152Z,55.35
2022-08-17T05:19:39.714Z,55.73
2022-08-17T05:22:08.584Z,56.71
2022-08-17T05:24:39.028Z,57.88
2022-08-17T05:27:17.844Z,59.05
2022-08-17T05:29:47.748Z,66.90
2022-08-17T05:32:38.770Z,65.13
2022-08-17T05:35:07.025Z,56.87
2022-08-17T05:37:35.669Z,53.04
2022-08-17T05:40:05.078Z,53.45
2022-08-17T05:42:33.866Z,54.56
2022-08-17T05:45:02.524Z,55.01
2022-08-17T05:47:31.884Z,55.80
2022-08-17T05:50:02.924Z,56.51
2022-08-17T05:52:53.406Z,57.29
2022-08-17T05:55:40.764Z,57.99
2022-08-17T05:58:19.445Z,58.52
2022-08-17T06:01:15.022Z,58.40
2022-08-17T06:04:13.905Z,58.89
2022-08-17T06:06:56.765Z,58.87
2022-08-17T06:09:39.686Z,59.50
2022-08-17T06:12:52.446Z,59.56
2022-08-17T06:15:33.667Z,59.24
2022-08-17T06:18:08.368Z,59.53
2022-08-17T06:21:00.285Z,60.20
2022-08-17T06:23:42.006Z,59.25
2022-08-17T06:26:41.097Z,59.03
2022-08-17T06:29:27.421Z,59.21
2022-08-17T06:31:56.245Z,59.10
2022-08-17T06:34:25.023Z,59.44
2022-08-17T06:37:21.586Z,59.51
2022-08-17T06:40:37.921Z,59.29
2022-08-17T06:43:41.220Z,58.51
2022-08-17T06:46:36.615Z,58.85
2022-08-17T06:49:34.321Z,59.19
2022-08-17T06:52:45.630Z,58.64
2022-08-17T06:55:34.435Z,58.03
2022-08-17T06:58:15.977Z,58.31
2022-08-17T07:00:49.955Z,56.89
2022-08-17T07:03:38.630Z,56.18
2022-08-17T07:06:20.219Z,56.45
2022-08-17T07:09:03.950Z,56.32
2022-08-17T07:11:40.470Z,55.31
2022-08-17T07:14:38.731Z,55.55
2022-08-17T07:17:18.810Z,55.54
2022-08-17T07:19:51.692Z,54.63
2022-08-17T07:22:53.609Z,54.61
2022-08-17T07:25:32.292Z,54.79
2022-08-17T07:28:07.213Z,54.60
2022-08-17T07:30:47.660Z,54.21
2022-08-17T07:33:26.861Z,54.20
2022-08-17T07:35:58.739Z,54.21
2022-08-17T07:38:31.753Z,53.95
2022-08-17T07:41:08.811Z,53.59
2022-08-17T07:43:40.373Z,53.66
2022-08-17T07:47:07.068Z,54.22
2022-08-17T07:49:44.614Z,54.11
2022-08-17T07:52:51.071Z,53.76
2022-08-17T07:55:33.246Z,55.06
2022-08-17T07:58:03.810Z,54.89
2022-08-17T08:00:34.075Z,54.03
2022-08-17T08:03:28.831Z,54.31
2022-08-17T08:06:02.500Z,54.42
2022-08-17T08:08:38.556Z,53.15
2022-08-17T08:11:13.458Z,54.11
2022-08-17T08:13:45.983Z,53.98
2022-08-17T08:16:29.991Z,54.04
2022-08-17T08:19:03.427Z,53.19
2022-08-17T08:22:16.210Z,52.49
2022-08-17T08:25:12.987Z,52.27
2022-08-17T08:28:28.652Z,52.59
2022-08-17T08:31:38.890Z,51.93
2022-08-17T08:34:58.735Z,50.90
2022-08-17T08:37:35.562Z,50.34
2022-08-17T08:40:39.207Z,49.99
2022-08-17T08:43:38.810Z,50.07
2022-08-17T08:46:36.852Z,50.36
2022-08-17T08:49:45.163Z,49.86
2022-08-17T08:53:05.220Z,49.71
2022-08-17T08:55:49.380Z,49.99
2022-08-17T08:58:44.730Z,49.49
2022-08-17T09:02:11.571Z,48.49
2022-08-17T09:05:37.265Z,48.25
2022-08-17T09:08:35.951Z,48.53
2022-08-17T09:11:23.451Z,48.50
2022-08-17T09:14:22.108Z,47.30
2022-08-17T09:17:21.813Z,47.02
2022-08-17T09:20:00.448Z,46.64
2022-08-17T09:22:44.232Z,46.81
2022-08-17T09:25:22.250Z,46.19
2022-08-17T09:28:04.414Z,46.52
2022-08-17T09:30:46.557Z,46.25
2022-08-17T09:33:26.561Z,47.30
2022-08-17T09:36:10.431Z,47.13
2022-08-17T09:39:06.870Z,45.77
2022-08-17T10:01:52.258Z,46.16
2022-08-17T10:04:56.590Z,44.19
2022-08-17T10:07:49.000Z,42.51
2022-08-17T10:10:34.390Z,42.30
2022-08-17T10:13:52.007Z,43.78
2022-08-17T10:16:41.107Z,42.87
2022-08-17T10:19:26.871Z,39.78
2022-08-17T10:22:34.951Z,38.59
2022-08-17T10:25:37.539Z,39.92
2022-08-17T10:28:25.847Z,38.50
2022-08-17T10:31:33.002Z,40.52
2022-08-17T10:34:41.616Z,37.77
2022-08-17T10:37:54.731Z,38.96
2022-08-17T10:40:53.632Z,38.73
2022-08-17T10:44:39.421Z,39.71
2022-08-17T10:47:17.222Z,39.66
2022-08-17T10:49:54.484Z,40.44
2022-08-17T10:52:25.192Z,40.07
2022-08-17T10:54:59.656Z,39.30
2022-08-17T10:57:32.799Z,40.93
2022-08-17T11:00:19.109Z,39.43
2022-08-17T11:02:56.139Z,40.28
2022-08-17T11:05:43.821Z,39.41
2022-08-17T11:08:42.944Z,38.60
2022-08-17T11:11:47.810Z,39.12
2022-08-17T11:15:11.789Z,39.70
2022-08-17T11:18:18.241Z,39.51
2022-08-17T11:21:20.834Z,38.09
2022-08-17T11:24:00.057Z,38.68
2022-08-17T11:26:35.631Z,37.92
2022-08-17T11:29:24.828Z,38.76
2022-08-17T11:32:27.300Z,36.61
2022-08-17T11:35:29.843Z,36.40
2022-08-17T11:38:20.529Z,36.21
2022-08-17T11:41:16.398Z,34.37
2022-08-17T11:44:10.789Z,33.32
2022-08-17T11:48:25.967Z,34.79
2022-08-17T11:51:27.727Z,35.31
2022-08-17T11:57:21.880Z,34.97
2022-08-17T12:00:10.908Z,35.18
2022-08-17T12:02:48.130Z,35.82
2022-08-17T12:05:27.751Z,35.02
2022-08-17T12:08:18.890Z,35.31
2022-08-17T12:11:11.320Z,35.42
2022-08-17T12:13:56.660Z,35.69
2022-08-17T12:16:26.230Z,35.92
2022-08-17T12:19:02.711Z,36.11
2022-08-17T12:22:03.758Z,36.79
2022-08-17T12:24:51.861Z,36.65
2022-08-17T12:28:04.140Z,37.28
2022-08-17T12:32:40.944Z,37.93
2022-08-17T12:35:37.195Z,37.65
2022-08-17T12:38:32.383Z,37.57
2022-08-17T12:41:00.347Z,37.57
2022-08-17T12:43:33.287Z,37.11
2022-08-17T12:46:15.194Z,36.96
2022-08-17T12:48:59.856Z,36.71
2022-08-17T12:51:29.484Z,36.58
2022-08-17T12:53:58.170Z,35.91
2022-08-17T12:56:27.275Z,37.06
2022-08-17T12:58:56.887Z,36.18
2022-08-17T13:01:27.048Z,35.91
2022-08-17T13:03:59.979Z,36.05
2022-08-17T13:06:36.025Z,35.57
2022-08-17T13:09:35.554Z,35.72
2022-08-17T13:12:08.931Z,35.53
2022-08-17T13:14:37.734Z,34.73
2022-08-17T13:17:11.266Z,34.88
2022-08-17T13:19:50.888Z,35.39
2022-08-17T13:22:25.493Z,34.73
2022-08-17T13:25:05.865Z,35.39
2022-08-17T13:27:35.349Z,34.92
2022-08-17T13:30:12.786Z,34.49
2022-08-17T13:32:47.469Z,34.65
2022-08-17T13:35:51.832Z,34.47
2022-08-17T13:38:49.993Z,34.64
2022-08-17T13:41:35.103Z,34.65
2022-08-17T13:44:30.962Z,34.34
2022-08-17T13:47:02.812Z,34.12
2022-08-17T13:49:41.959Z,34.58
2022-08-17T13:52:44.576Z,35.38
2022-08-17T13:55:22.960Z,35.88
2022-08-17T13:58:03.888Z,35.37
2022-08-17T14:00:37.704Z,34.83
2022-08-17T14:03:06.826Z,33.73
2022-08-17T14:05:38.107Z,33.89
2022-08-17T14:08:07.414Z,33.97
2022-08-17T14:10:36.882Z,34.29
2022-08-17T14:13:08.147Z,34.39
2022-08-17T14:15:54.881Z,34.05
2022-08-17T14:18:55.272Z,35.05
2022-08-17T14:21:14.859Z,34.57
2022-08-17T14:23:54.302Z,34.54
2022-08-17T14:26:23.423Z,34.13
2022-08-17T14:28:54.751Z,33.95
2022-08-17T14:31:27.712Z,33.51
2022-08-17T14:33:56.119Z,33.93
2022-08-17T14:36:24.696Z,33.38
2022-08-17T14:38:53.291Z,32.93
2022-08-17T14:41:23.809Z,32.80
2022-08-17T14:43:55.992Z,33.15
2022-08-17T14:46:24.368Z,32.85
2022-08-17T14:48:57.381Z,33.49
2022-08-17T14:51:30.251Z,33.47
2022-08-17T14:53:58.921Z,33.89
2022-08-17T14:56:27.610Z,34.71
2022-08-17T14:59:00.281Z,34.19
2022-08-17T15:01:29.784Z,34.94
2022-08-17T15:03:58.449Z,35.17
2022-08-17T15:06:26.959Z,35.13
2022-08-17T15:08:56.149Z,34.77
2022-08-17T15:11:24.740Z,34.10
2022-08-17T15:13:53.415Z,34.86
2022-08-17T15:16:23.039Z,33.84
2022-08-17T15:18:53.048Z,33.91
2022-08-17T15:21:22.557Z,33.75
2022-08-17T15:23:52.037Z,34.73
2022-08-17T15:26:26.205Z,35.26
2022-08-17T15:28:56.839Z,35.74
2022-08-17T15:31:29.882Z,35.26
2022-08-17T15:34:01.358Z,35.26
2022-08-17T15:36:29.932Z,35.65
2022-08-17T15:38:59.339Z,34.61
2022-08-17T15:41:28.539Z,34.95
2022-08-17T15:43:57.331Z,35.35
2022-08-17T15:46:28.435Z,35.74
2022-08-17T15:49:00.350Z,35.89
2022-08-17T15:51:35.754Z,36.15
2022-08-17T15:54:18.815Z,36.19
2022-08-17T15:56:48.106Z,36.57
2022-08-17T15:59:16.483Z,36.18
2022-08-17T16:03:01.411Z,36.37
2022-08-17T16:04:33.362Z,36.79
2022-08-17T16:07:01.999Z,35.88
2022-08-17T16:09:30.451Z,35.04
2022-08-17T16:12:12.177Z,34.70
2022-08-17T16:14:41.176Z,34.50
2022-08-17T16:17:38.502Z,33.88
2022-08-17T16:19:59.323Z,34.39
2022-08-17T16:22:43.320Z,35.17
2022-08-17T16:25:20.239Z,34.96
2022-08-17T16:27:55.179Z,34.45
2022-08-17T16:30:27.400Z,34.40
2022-08-17T16:32:58.936Z,36.27
2022-08-17T16:35:28.521Z,36.46
2022-08-17T16:37:59.020Z,36.95
2022-08-17T16:40:31.313Z,37.85
2022-08-17T16:43:10.855Z,38.79
2022-08-17T16:45:40.999Z,40.81
2022-08-17T16:48:10.433Z,39.97
2022-08-17T16:50:39.263Z,42.71
2022-08-17T16:53:18.191Z,42.80
2022-08-17T16:55:49.359Z,43.70
2022-08-17T16:58:18.228Z,43.27
2022-08-17T17:00:49.175Z,42.77
2022-08-17T17:03:25.229Z,46.07
2022-08-17T17:06:06.389Z,44.93
2022-08-17T17:08:51.483Z,44.56
2022-08-17T17:11:36.769Z,44.91
2022-08-17T17:14:14.660Z,45.13
2022-08-17T17:17:03.583Z,46.31
2022-08-17T17:19:41.409Z,47.48
2022-08-17T17:22:41.848Z,47.85
2022-08-17T17:25:39.884Z,48.32
2022-08-17T17:28:49.169Z,48.80
2022-08-17T17:31:25.382Z,47.41
2022-08-17T17:34:03.132Z,47.53
2022-08-17T17:36:50.351Z,47.98
2022-08-17T17:39:43.738Z,48.31
2022-08-17T17:42:28.575Z,48.05
2022-08-17T17:45:12.428Z,47.01
2022-08-17T17:47:41.001Z,47.26
2022-08-17T17:50:10.818Z,47.37
2022-08-17T17:53:04.078Z,47.09
2022-08-17T17:56:00.097Z,47.59
2022-08-17T17:58:59.189Z,49.12
2022-08-17T18:01:50.017Z,50.40
2022-08-17T18:04:21.571Z,51.10
2022-08-17T18:07:30.300Z,51.55
2022-08-17T18:10:13.927Z,49.51
2022-08-17T18:13:33.620Z,49.66
2022-08-17T18:16:04.343Z,50.13
2022-08-17T18:18:38.572Z,50.74
2022-08-17T18:21:19.950Z,51.41
2022-08-17T18:24:02.970Z,51.01
2022-08-17T18:26:57.364Z,51.13
2022-08-17T18:29:30.660Z,52.03
2022-08-17T18:32:18.698Z,54.54
2022-08-17T18:35:09.827Z,55.21
2022-08-17T18:37:50.016Z,55.79
2022-08-17T18:40:19.843Z,54.85
2022-08-17T18:43:25.773Z,54.16
2022-08-17T18:45:58.029Z,54.13
2022-08-17T18:48:50.949Z,54.42
2022-08-17T18:51:42.090Z,54.28
2022-08-17T18:54:25.317Z,54.48
2022-08-17T18:57:00.896Z,54.77
2022-08-17T18:59:48.467Z,55.15
2022-08-17T19:02:46.064Z,55.52
2022-08-17T19:05:29.265Z,55.96
2022-08-17T19:08:23.706Z,57.24
2022-08-17T19:10:59.630Z,57.30
2022-08-17T19:13:46.225Z,57.00
2022-08-17T19:16:20.514Z,57.04
2022-08-17T19:19:11.658Z,57.07
2022-08-17T19:21:53.455Z,57.44
2022-08-17T19:24:28.818Z,56.83
2022-08-17T19:27:22.364Z,57.27
2022-08-17T19:30:05.505Z,57.24
2022-08-17T19:32:37.354Z,57.26
2022-08-17T19:35:15.129Z,58.20
2022-08-17T19:38:13.000Z,57.32
2022-08-17T19:40:55.775Z,57.09
2022-08-17T19:44:23.929Z,58.06
2022-08-17T19:47:01.245Z,57.23
2022-08-17T19:49:57.644Z,57.97
2022-08-17T19:52:55.220Z,58.55
2022-08-17T19:56:16.228Z,59.11
2022-08-17T19:59:13.890Z,59.06
2022-08-17T20:01:55.019Z,58.95
2022-08-17T20:04:31.787Z,59.36
2022-08-17T20:07:19.064Z,59.22
2022-08-17T20:10:08.424Z,59.06
2022-08-17T20:12:42.826Z,58.93
2022-08-17T20:15:30.180Z,59.75
2022-08-17T20:18:05.534Z,59.59
2022-08-17T20:20:54.723Z,59.46
2022-08-17T20:23:31.779Z,58.92
2022-08-17T20:26:23.236Z,58.87
2022-08-17T20:29:37.807Z,58.66
2022-08-17T20:32:27.292Z,58.04
2022-08-17T20:35:32.477Z,58.31
2022-08-17T20:38:10.895Z,57.97
2022-08-17T20:40:54.843Z,58.37
2022-08-17T20:43:34.376Z,58.36
2022-08-17T20:46:33.065Z,58.49
2022-08-17T20:49:47.484Z,58.47
2022-08-17T20:52:57.573Z,57.87
2022-08-17T20:55:51.741Z,57.85
2022-08-17T20:58:30.779Z,57.96
2022-08-17T21:01:10.766Z,58.11
2022-08-17T21:03:50.331Z,58.10
2022-08-17T21:06:23.573Z,58.25
2022-08-17T21:08:54.417Z,58.63
2022-08-17T21:11:57.146Z,58.78
2022-08-17T21:14:34.494Z,59.00
2022-08-17T21:17:35.964Z,59.21
2022-08-17T21:20:45.596Z,60.24
2022-08-17T21:23:44.974Z,59.82
2022-08-17T21:26:30.451Z,60.05
2022-08-17T21:29:29.499Z,60.42
2022-08-17T21:32:00.653Z,60.34
2022-08-17T21:35:07.095Z,65.83
2022-08-17T21:37:48.743Z,68.71
2022-08-17T21:40:26.604Z,59.35
2022-08-17T21:43:05.408Z,55.13
2022-08-17T21:45:40.732Z,54.96
2022-08-17T21:48:24.720Z,55.68
2022-08-17T21:51:17.955Z,56.41
2022-08-17T21:53:53.393Z,56.90
2022-08-17T21:56:33.674Z,58.03
